createdAt,value
2018-04-10T00:01:20.628Z,2.67
2018-04-10T00:03:49.989Z,2.83
2018-04-10T00:06:20.887Z,2.80
2018-04-10T00:08:50.533Z,2.70
2018-04-10T00:11:27.250Z,3.30
2018-04-10T00:13:57.907Z,2.70
2018-04-10T00:16:27.629Z,2.73
2018-04-10T00:18:58.025Z,2.50
2018-04-10T00:21:35.923Z,2.60
2018-04-10T00:24:08.989Z,2.40
2018-04-10T00:26:43.087Z,2.57
2018-04-10T00:29:12.188Z,2.47
2018-04-10T00:31:52.388Z,2.53
2018-04-10T00:34:21.754Z,2.60
2018-04-10T00:36:51.298Z,2.77
2018-04-10T00:39:22.584Z,2.60
2018-04-10T00:41:54.863Z,2.60
2018-04-10T00:44:23.659Z,2.47
2018-04-10T00:46:53.613Z,2.47
2018-04-10T00:49:23.192Z,2.50
2018-04-10T00:51:59.039Z,2.60
2018-04-10T00:54:28.366Z,2.20
2018-04-10T00:56:57.054Z,2.10
2018-04-10T00:59:26.597Z,2.50
2018-04-10T01:01:55.787Z,2.70
2018-04-10T01:04:25.492Z,2.37
2018-04-10T01:06:54.849Z,2.40
2018-04-10T01:09:27.530Z,2.30
2018-04-10T01:11:58.981Z,2.20
2018-04-10T01:14:28.742Z,2.40
2018-04-10T01:16:58.046Z,2.43
2018-04-10T01:19:28.282Z,2.30
2018-04-10T01:22:07.510Z,2.20
2018-04-10T01:24:37.285Z,2.10
2018-04-10T01:27:13.096Z,2.30
2018-04-10T01:29:43.208Z,2.63
2018-04-10T01:35:30.819Z,2.27
2018-04-10T01:38:00.300Z,2.30
2018-04-10T01:40:31.303Z,2.20
2018-04-10T01:43:01.953Z,2.43
2018-04-10T01:45:45.994Z,2.70
2018-04-10T01:48:15.794Z,2.27
2018-04-10T01:50:45.706Z,2.23
2018-04-10T01:53:16.542Z,2.50
2018-04-10T01:55:57.008Z,2.37
2018-04-10T01:58:26.432Z,1.93
2018-04-10T02:00:57.072Z,2.27
2018-04-10T02:03:27.310Z,2.40
2018-04-10T02:06:02.709Z,2.30
2018-04-10T02:08:33.424Z,2.30
2018-04-10T02:11:03.555Z,2.40
2018-04-10T02:13:33.775Z,2.23
2018-04-10T02:16:06.901Z,1.90
2018-04-10T02:18:37.011Z,2.20
2018-04-10T02:21:06.366Z,2.23
2018-04-10T02:23:38.570Z,1.90
2018-04-10T02:26:09.323Z,2.10
2018-04-10T02:28:43.779Z,2.03
2018-04-10T02:31:20.157Z,1.93
2018-04-10T02:33:48.837Z,2.17
2018-04-10T02:36:21.295Z,2.20
2018-04-10T02:38:55.851Z,2.20
2018-04-10T02:41:25.638Z,2.07
2018-04-10T02:43:55.430Z,2.27
2018-04-10T02:46:29.333Z,1.87
2018-04-10T02:48:59.822Z,2.00
2018-04-10T02:51:30.895Z,2.53
2018-04-10T02:53:59.415Z,2.20
2018-04-10T02:56:42.351Z,2.10
2018-04-10T02:59:11.711Z,2.30
2018-04-10T03:01:40.094Z,2.00
2018-04-10T03:04:10.415Z,2.33
2018-04-10T03:06:42.969Z,2.10
2018-04-10T03:09:12.281Z,2.13
2018-04-10T03:11:43.497Z,2.00
2018-04-10T03:14:12.933Z,2.07
2018-04-10T03:19:18.222Z,2.00
2018-04-10T03:21:47.465Z,2.27
2018-04-10T03:24:18.995Z,1.97
2018-04-10T03:29:47.035Z,2.20
2018-04-10T03:32:16.869Z,1.90
2018-04-10T03:34:46.135Z,1.90
2018-04-10T03:37:21.334Z,2.33
2018-04-10T03:39:52.060Z,2.03
2018-04-10T03:42:23.579Z,2.03
2018-04-10T03:44:54.679Z,1.97
2018-04-10T03:47:27.161Z,2.10
2018-04-10T03:49:57.206Z,1.97
2018-04-10T03:52:27.494Z,2.00
2018-04-10T03:54:57.833Z,2.20
2018-04-10T03:57:46.635Z,1.90
2018-04-10T04:00:17.595Z,2.20
2018-04-10T04:02:47.827Z,1.83
2018-04-10T04:05:17.793Z,1.90
2018-04-10T04:08:03.082Z,2.00
2018-04-10T04:10:33.050Z,2.20
2018-04-10T04:13:01.471Z,2.07
2018-04-10T04:15:30.549Z,1.90
2018-04-10T04:18:14.812Z,1.80
2018-04-10T04:20:57.798Z,2.00
2018-04-10T04:23:27.421Z,2.10
2018-04-10T04:26:08.806Z,2.00
2018-04-10T04:28:46.402Z,2.17
2018-04-10T04:31:18.611Z,1.97
2018-04-10T04:33:50.939Z,2.00
2018-04-10T04:36:42.160Z,1.83
2018-04-10T04:39:14.538Z,1.80
2018-04-10T04:41:44.739Z,2.23
2018-04-10T04:44:13.127Z,1.80
2018-04-10T04:46:49.825Z,1.87
2018-04-10T04:49:19.529Z,1.97
2018-04-10T04:51:48.308Z,2.00
2018-04-10T04:54:17.480Z,2.30
2018-04-10T04:56:58.736Z,1.90
2018-04-10T04:59:27.340Z,2.00
2018-04-10T05:02:00.432Z,2.03
2018-04-10T05:04:28.899Z,2.00
2018-04-10T05:07:00.976Z,2.00
2018-04-10T05:09:31.332Z,2.00
2018-04-10T05:12:01.767Z,2.53
2018-04-10T05:14:33.237Z,2.00
2018-04-10T05:17:18.945Z,2.20
2018-04-10T05:19:52.863Z,2.10
2018-04-10T05:22:23.364Z,2.10
2018-04-10T05:24:52.641Z,2.57
2018-04-10T05:27:22.393Z,1.90
2018-04-10T05:29:51.643Z,2.53
2018-04-10T05:32:19.978Z,2.00
2018-04-10T05:34:51.709Z,2.53
2018-04-10T05:40:00.870Z,2.10
2018-04-10T05:42:29.266Z,2.00
2018-04-10T05:44:57.628Z,2.30
2018-04-10T05:47:33.002Z,2.30
2018-04-10T05:50:01.436Z,2.17
2018-04-10T05:52:29.789Z,2.03
2018-04-10T05:54:58.151Z,2.20
2018-04-10T05:57:27.356Z,2.20
2018-04-10T05:59:56.443Z,2.70
2018-04-10T06:02:24.862Z,2.07
2018-04-10T06:04:53.949Z,2.37
2018-04-10T06:07:22.341Z,1.90
2018-04-10T06:10:00.049Z,2.27
2018-04-10T06:12:31.220Z,2.13
2018-04-10T06:15:00.707Z,1.93
2018-04-10T06:17:29.077Z,2.20
2018-04-10T06:19:57.457Z,2.40
2018-04-10T06:22:25.854Z,2.20
2018-04-10T06:24:54.203Z,2.17
2018-04-10T06:27:23.241Z,2.10
2018-04-10T06:29:51.581Z,2.50
2018-04-10T06:32:21.587Z,1.90
2018-04-10T06:34:51.606Z,2.30
2018-04-10T06:37:20.072Z,1.73
2018-04-10T06:39:49.026Z,2.00
2018-04-10T06:42:19.386Z,1.90
2018-04-10T06:44:48.556Z,2.20
2018-04-10T06:47:17.093Z,1.90
2018-04-10T06:49:45.423Z,2.03
2018-04-10T06:52:14.467Z,1.77
2018-04-10T06:54:46.001Z,2.13
2018-04-10T06:57:14.469Z,2.03
2018-04-10T06:59:44.771Z,2.13
2018-04-10T07:02:13.957Z,2.00
2018-04-10T07:04:43.128Z,1.90
2018-04-10T07:07:13.605Z,2.07
2018-04-10T07:09:41.949Z,1.60
2018-04-10T07:12:10.266Z,2.03
2018-04-10T07:14:39.458Z,2.10
2018-04-10T07:17:08.081Z,2.07
2018-04-10T07:19:36.473Z,1.77
2018-04-10T07:22:13.694Z,1.70
2018-04-10T07:24:42.095Z,2.33
2018-04-10T07:27:13.019Z,1.90
2018-04-10T07:29:43.013Z,2.00
2018-04-10T07:32:23.756Z,1.60
2018-04-10T07:34:52.756Z,1.97
2018-04-10T07:37:22.075Z,1.67
2018-04-10T07:39:50.534Z,2.00
2018-04-10T07:42:18.876Z,1.80
2018-04-10T07:44:53.829Z,2.00
2018-04-10T07:47:22.157Z,1.67
2018-04-10T07:49:51.109Z,1.70
2018-04-10T07:52:19.526Z,1.83
2018-04-10T07:54:47.951Z,1.77
2018-04-10T07:57:16.278Z,1.90
2018-04-10T07:59:44.672Z,1.50
2018-04-10T08:02:13.041Z,1.93
2018-04-10T08:04:44.014Z,1.50
2018-04-10T08:07:13.918Z,2.03
2018-04-10T08:09:43.915Z,1.40
2018-04-10T08:12:12.323Z,1.83
2018-04-10T08:14:41.028Z,1.60
2018-04-10T08:17:10.212Z,1.50
2018-04-10T08:19:40.754Z,1.97
2018-04-10T08:22:10.187Z,1.50
2018-04-10T08:24:39.164Z,1.70
2018-04-10T08:27:08.511Z,1.60
2018-04-10T08:29:37.474Z,1.70
2018-04-10T08:32:06.521Z,1.87
2018-04-10T08:34:35.072Z,1.70
2018-04-10T08:39:41.325Z,1.67
2018-04-10T08:42:11.714Z,1.73
2018-04-10T08:44:43.044Z,1.40
2018-04-10T08:47:24.798Z,2.00
2018-04-10T08:49:54.410Z,2.00
2018-04-10T08:52:22.811Z,1.93
2018-04-10T08:54:52.122Z,2.13
2018-04-10T08:57:40.274Z,2.77
2018-04-10T09:00:12.428Z,2.60
2018-04-10T09:02:45.426Z,2.30
2018-04-10T09:05:17.270Z,2.30
2018-04-10T09:07:47.867Z,2.43
2018-04-10T09:10:21.739Z,2.00
2018-04-10T09:12:52.612Z,2.67
2018-04-10T09:15:22.188Z,2.33
2018-04-10T09:26:11.971Z,2.13
2018-04-10T09:29:06.018Z,2.50
2018-04-10T09:31:47.562Z,2.60
2018-04-10T09:37:39.735Z,2.10
2018-04-10T09:40:20.840Z,1.93
2018-04-10T09:46:03.623Z,1.87
2018-04-10T09:49:07.716Z,2.10
2018-04-10T09:54:25.090Z,1.87
2018-04-10T09:59:54.965Z,1.97
2018-04-10T10:02:55.069Z,1.93
2018-04-10T10:05:50.505Z,2.10
2018-04-10T10:08:39.606Z,1.87
2018-04-10T10:14:05.024Z,1.90
2018-04-10T10:16:43.219Z,1.67
2018-04-10T10:19:34.685Z,1.87
2018-04-10T10:22:08.075Z,1.80
2018-04-10T10:24:48.507Z,2.10
2018-04-10T10:27:25.232Z,1.67
2018-04-10T10:32:40.066Z,2.17
2018-04-10T10:35:24.257Z,1.70
2018-04-10T10:38:01.057Z,1.93
2018-04-10T10:40:40.363Z,1.93
2018-04-10T10:43:14.621Z,1.80
2018-04-10T10:45:51.073Z,1.90
2018-04-10T10:48:30.217Z,2.03
2018-04-10T10:51:11.715Z,1.70
2018-04-10T10:53:48.227Z,1.63
2018-04-10T10:56:26.431Z,2.00
2018-04-10T10:59:05.812Z,1.60
2018-04-10T11:01:46.975Z,1.70
2018-04-10T11:04:30.459Z,1.60
2018-04-10T11:07:01.184Z,1.57
2018-04-10T11:12:48.498Z,1.80
2018-04-10T11:15:18.810Z,2.37
2018-04-10T11:17:48.204Z,2.10
2018-04-10T11:20:32.781Z,2.10
2018-04-10T11:23:02.406Z,1.80
2018-04-10T11:25:31.622Z,2.00
2018-04-10T11:28:00.871Z,1.90
2018-04-10T11:30:30.807Z,1.77
2018-04-10T11:33:01.130Z,2.10
2018-04-10T11:35:30.418Z,1.83
2018-04-10T11:37:59.283Z,2.00
2018-04-10T11:40:29.072Z,1.90
2018-04-10T11:42:59.390Z,2.13
2018-04-10T11:45:30.096Z,2.10
2018-04-10T11:47:58.522Z,2.17
2018-04-10T11:50:38.719Z,1.73
2018-04-10T11:53:07.096Z,2.03
2018-04-10T11:55:36.328Z,1.83
2018-04-10T11:58:05.622Z,1.73
2018-04-10T12:00:35.267Z,1.60
2018-04-10T12:03:03.794Z,1.80
2018-04-10T12:05:32.929Z,1.40
2018-04-10T12:08:02.958Z,1.83
2018-04-10T12:10:32.722Z,1.60
2018-04-10T12:13:02.372Z,1.90
2018-04-10T12:15:31.482Z,1.73
2018-04-10T12:18:00.784Z,1.73
2018-04-10T12:20:29.129Z,1.60
2018-04-10T12:22:59.504Z,2.30
2018-04-10T12:25:28.603Z,2.07
2018-04-10T12:27:57.727Z,1.63
2018-04-10T12:30:27.081Z,1.57
2018-04-10T12:32:56.626Z,1.70
2018-04-10T12:35:27.097Z,1.60
2018-04-10T12:37:57.170Z,1.90
2018-04-10T12:40:30.415Z,1.63
2018-04-10T12:42:59.352Z,1.50
2018-04-10T12:45:29.415Z,1.97
2018-04-10T12:48:00.150Z,1.63
2018-04-10T12:53:04.837Z,1.93
2018-04-10T12:55:34.327Z,2.27
2018-04-10T12:58:04.807Z,2.23
2018-04-10T13:00:35.330Z,1.93
2018-04-10T13:03:04.442Z,2.03
2018-04-10T13:05:34.199Z,2.20
2018-04-10T13:08:03.698Z,2.00
2018-04-10T13:10:34.647Z,2.20
2018-04-10T13:13:04.074Z,2.23
2018-04-10T13:15:33.017Z,1.97
2018-04-10T13:18:03.287Z,2.13
2018-04-10T13:20:32.526Z,1.70
2018-04-10T13:23:02.958Z,2.17
2018-04-10T13:25:32.821Z,1.90
2018-04-10T13:28:01.268Z,2.03
2018-04-10T13:30:36.211Z,1.70
2018-04-10T13:33:04.579Z,1.53
2018-04-10T13:35:34.306Z,1.67
2018-04-10T13:38:03.710Z,1.83
2018-04-10T13:40:33.726Z,1.60
2018-04-10T13:43:04.171Z,1.60
2018-04-10T13:45:33.886Z,1.80
2018-04-10T13:48:03.808Z,1.83
2018-04-10T13:50:32.878Z,1.77
2018-04-10T13:53:02.191Z,1.83
2018-04-10T13:55:32.098Z,1.73
2018-04-10T13:58:02.456Z,1.50
2018-04-10T14:00:32.722Z,1.87
2018-04-10T14:03:02.869Z,1.70
2018-04-10T14:05:31.223Z,1.70
2018-04-10T14:07:59.593Z,1.53
2018-04-10T14:10:29.050Z,1.87
2018-04-10T14:12:59.590Z,1.60
2018-04-10T14:15:29.390Z,1.20
2018-04-10T14:17:58.508Z,1.40
2018-04-10T14:20:27.807Z,1.60
2018-04-10T14:23:00.753Z,1.63
2018-04-10T14:25:29.938Z,1.57
2018-04-10T14:27:59.180Z,2.00
2018-04-10T14:30:28.082Z,2.20
2018-04-10T14:32:57.136Z,1.80
2018-04-10T14:35:25.527Z,1.90
2018-04-10T14:37:53.910Z,2.37
2018-04-10T14:40:23.590Z,1.80
2018-04-10T14:42:51.939Z,1.63
2018-04-10T14:45:20.235Z,1.87
2018-04-10T14:47:48.557Z,1.50
2018-04-10T14:50:17.723Z,2.20
2018-04-10T14:52:46.418Z,1.93
2018-04-10T14:55:15.351Z,1.90
2018-04-10T14:57:43.762Z,1.30
2018-04-10T15:00:14.626Z,1.73
2018-04-10T15:02:42.926Z,1.40
2018-04-10T15:05:12.377Z,1.10
2018-04-10T15:07:41.612Z,1.80
2018-04-10T15:10:09.949Z,1.60
2018-04-10T15:12:38.294Z,1.40
2018-04-10T15:15:07.498Z,1.20
2018-04-10T15:17:36.146Z,1.30
2018-04-10T15:20:04.496Z,1.43
2018-04-10T15:22:34.710Z,1.37
2018-04-10T15:25:03.046Z,2.07
2018-04-10T15:27:31.373Z,1.20
2018-04-10T15:30:00.672Z,1.60
2018-04-10T15:32:29.754Z,1.50
2018-04-10T15:34:58.409Z,1.57
2018-04-10T15:37:28.019Z,1.10
2018-04-10T15:39:57.430Z,1.37
2018-04-10T15:42:26.606Z,1.33
2018-04-10T15:44:54.998Z,1.43
2018-04-10T15:47:23.664Z,1.20
2018-04-10T15:49:53.127Z,1.40
2018-04-10T15:52:22.441Z,1.17
2018-04-10T15:54:51.459Z,1.30
2018-04-10T15:57:19.801Z,1.20
2018-04-10T15:59:49.146Z,1.23
2018-04-10T16:02:20.374Z,1.50
2018-04-10T16:04:49.782Z,1.00
2018-04-10T16:07:19.055Z,1.30
2018-04-10T16:09:47.879Z,1.10
2018-04-10T16:12:16.976Z,1.00
2018-04-10T16:14:45.301Z,1.20
2018-04-10T16:17:13.693Z,1.30
2018-04-10T16:19:43.155Z,0.90
2018-04-10T16:22:11.542Z,0.90
2018-04-10T16:24:41.233Z,1.00
2018-04-10T16:27:10.537Z,0.77
2018-04-10T16:29:39.666Z,1.17
2018-04-10T16:32:08.617Z,1.00
2018-04-10T16:34:38.436Z,1.30
2018-04-10T16:37:07.446Z,1.30
2018-04-10T16:39:36.186Z,1.00
2018-04-10T16:45:04.058Z,0.80
2018-04-10T16:47:33.218Z,1.00
2018-04-10T16:50:01.566Z,1.07
2018-04-10T16:52:29.871Z,0.83
2018-04-10T16:54:59.941Z,1.37
2018-04-10T16:57:28.985Z,1.23
2018-04-10T16:59:57.395Z,1.10
2018-04-10T17:02:25.697Z,0.87
2018-04-10T17:04:54.806Z,1.53
2018-04-10T17:07:23.910Z,1.47
2018-04-10T17:09:52.618Z,1.27
2018-04-10T17:12:21.062Z,0.90
2018-04-10T17:14:50.377Z,1.13
2018-04-10T17:17:19.662Z,1.20
2018-04-10T17:20:03.334Z,1.00
2018-04-10T17:22:31.699Z,0.80
2018-04-10T17:25:00.836Z,0.73
2018-04-10T17:27:29.198Z,0.93
2018-04-10T17:29:57.575Z,1.00
2018-04-10T17:32:26.796Z,1.17
2018-04-10T17:34:55.162Z,1.07
2018-04-10T17:37:23.513Z,0.87
2018-04-10T17:39:53.350Z,0.90
2018-04-10T17:42:22.362Z,0.90
2018-04-10T17:44:51.622Z,0.93
2018-04-10T17:47:19.945Z,0.97
2018-04-10T17:49:48.269Z,1.00
2018-04-10T17:52:16.663Z,1.00
2018-04-10T17:54:45.043Z,0.70
2018-04-10T17:57:14.275Z,1.30
2018-04-10T17:59:42.626Z,1.00
2018-04-10T18:02:11.077Z,0.73
2018-04-10T18:04:40.236Z,0.83
2018-04-10T18:07:11.211Z,1.10
2018-04-10T18:09:39.606Z,0.73
2018-04-10T18:12:10.887Z,0.80
2018-04-10T18:14:40.302Z,1.00
2018-04-10T18:17:09.518Z,0.70
2018-04-10T18:19:38.286Z,1.00
2018-04-10T18:22:07.325Z,1.20
2018-04-10T18:24:36.355Z,1.17
2018-04-10T18:27:05.994Z,1.13
2018-04-10T18:29:34.297Z,1.00
2018-04-10T18:32:03.568Z,1.00
2018-04-10T18:34:32.670Z,1.10
2018-04-10T18:37:02.185Z,0.93
2018-04-10T18:39:31.236Z,1.17
2018-04-10T18:41:59.576Z,1.10
2018-04-10T18:44:28.243Z,0.93
2018-04-10T18:46:56.606Z,0.87
2018-04-10T18:49:25.404Z,0.87
2018-04-10T18:51:53.977Z,1.00
2018-04-10T18:54:22.383Z,1.03
2018-04-10T18:56:50.952Z,0.90
2018-04-10T18:59:20.516Z,0.90
2018-04-10T19:01:48.887Z,0.70
2018-04-10T19:04:17.207Z,1.03
2018-04-10T19:06:46.352Z,0.83
2018-04-10T19:09:14.714Z,0.90
2018-04-10T19:11:44.204Z,0.70
2018-04-10T19:14:13.570Z,0.90
2018-04-10T19:16:49.619Z,0.80
2018-04-10T19:19:18.982Z,1.00
2018-04-10T19:21:48.463Z,0.77
2018-04-10T19:24:17.346Z,0.80
2018-04-10T19:26:45.729Z,1.10
2018-04-10T19:29:14.038Z,1.13
2018-04-10T19:31:43.442Z,0.90
2018-04-10T19:34:11.975Z,1.17
2018-04-10T19:36:40.311Z,1.07
2018-04-10T19:39:10.687Z,1.13
2018-04-10T19:41:39.654Z,1.10
2018-04-10T19:44:10.082Z,0.90
2018-04-10T19:46:39.546Z,0.90
2018-04-10T19:49:22.884Z,0.80
2018-04-10T19:51:51.285Z,1.00
2018-04-10T19:54:19.866Z,0.90
2018-04-10T19:56:49.730Z,1.00
2018-04-10T19:59:19.070Z,0.77
2018-04-10T20:01:49.803Z,0.90
2018-04-10T20:04:18.613Z,1.00
2018-04-10T20:06:46.979Z,0.90
2018-04-10T20:09:15.945Z,1.00
2018-04-10T20:11:45.294Z,0.90
2018-04-10T20:14:13.653Z,0.80
2018-04-10T20:16:42.851Z,0.93
2018-04-10T20:19:12.312Z,0.83
2018-04-10T20:21:41.444Z,0.80
2018-04-10T20:24:09.798Z,1.10
2018-04-10T20:26:39.258Z,1.20
2018-04-10T20:29:08.061Z,0.80
2018-04-10T20:31:38.030Z,0.90
2018-04-10T20:34:07.775Z,1.53
2018-04-10T20:36:37.055Z,0.63
2018-04-10T20:39:07.218Z,1.10
2018-04-10T20:41:35.578Z,0.87
2018-04-10T20:44:03.914Z,0.80
2018-04-10T20:46:33.650Z,0.90
2018-04-10T20:49:02.999Z,0.90
2018-04-10T20:51:32.183Z,0.90
2018-04-10T20:54:01.909Z,0.80
2018-04-10T20:56:33.019Z,0.80
2018-04-10T20:59:02.885Z,0.90
2018-04-10T21:01:32.289Z,0.80
2018-04-10T21:04:02.834Z,0.90
2018-04-10T21:06:33.162Z,1.53
2018-04-10T21:09:02.907Z,0.70
2018-04-10T21:11:32.151Z,0.70
2018-04-10T21:14:01.997Z,1.10
2018-04-10T21:16:31.730Z,0.90
2018-04-10T21:19:01.521Z,0.70
2018-04-10T21:21:31.412Z,0.70
2018-04-10T21:24:10.419Z,1.00
2018-04-10T21:26:38.750Z,0.73
2018-04-10T21:29:08.746Z,0.60
2018-04-10T21:31:38.345Z,0.80
2018-04-10T21:34:06.701Z,0.50
2018-04-10T21:36:44.981Z,0.80
2018-04-10T21:39:14.625Z,0.73
2018-04-10T21:41:43.003Z,1.00
2018-04-10T21:44:12.218Z,0.80
2018-04-10T21:46:40.549Z,1.17
2018-04-10T21:49:09.685Z,0.80
2018-04-10T21:51:38.111Z,0.60
2018-04-10T21:54:06.421Z,0.70
2018-04-10T21:56:34.730Z,0.77
2018-04-10T21:59:03.111Z,1.00
2018-04-10T22:01:33.015Z,1.10
2018-04-10T22:04:01.358Z,0.90
2018-04-10T22:06:31.367Z,0.70
2018-04-10T22:09:05.151Z,0.70
2018-04-10T22:11:35.216Z,1.00
2018-04-10T22:14:03.604Z,0.80
2018-04-10T22:16:32.015Z,1.03
2018-04-10T22:19:01.252Z,0.80
2018-04-10T22:21:31.103Z,0.90
2018-04-10T22:24:00.249Z,0.63
2018-04-10T22:26:29.307Z,0.80
2018-04-10T22:28:58.758Z,0.90
2018-04-10T22:31:27.458Z,0.67
2018-04-10T22:33:56.536Z,0.63
2018-04-10T22:36:25.756Z,0.60
2018-04-10T22:38:54.987Z,1.00
2018-04-10T22:41:23.357Z,0.77
2018-04-10T22:43:51.766Z,1.10
2018-04-10T22:46:20.605Z,0.50
2018-04-10T22:48:49.207Z,0.90
2018-04-10T22:51:18.383Z,0.70
2018-04-10T22:53:47.769Z,1.10
2018-04-10T22:56:16.075Z,0.70
2018-04-10T22:58:45.276Z,0.80
2018-04-10T23:01:15.508Z,0.80
2018-04-10T23:03:44.707Z,0.70
2018-04-10T23:06:13.969Z,0.60
2018-04-10T23:08:43.522Z,0.80
2018-04-10T23:11:12.098Z,0.60
2018-04-10T23:13:42.495Z,0.70
2018-04-10T23:16:11.723Z,0.60
2018-04-10T23:18:41.990Z,0.93
2018-04-10T23:21:11.910Z,0.70
2018-04-10T23:23:42.339Z,0.53
2018-04-10T23:26:12.210Z,0.80
2018-04-10T23:28:42.368Z,0.67
2018-04-10T23:31:11.182Z,0.83
2018-04-10T23:33:40.583Z,0.70
2018-04-10T23:36:09.166Z,0.80
2018-04-10T23:38:37.816Z,0.90
2018-04-10T23:41:07.119Z,0.87
2018-04-10T23:43:36.138Z,0.57
2018-04-10T23:46:05.512Z,0.70
2018-04-10T23:48:34.633Z,0.70
2018-04-10T23:51:03.761Z,0.63
2018-04-10T23:53:32.986Z,0.57
2018-04-10T23:56:01.309Z,0.60
2018-04-10T23:58:37.864Z,0.57
